createdAt,value
2023-02-16T00:02:13.592Z,84.54
2023-02-16T00:04:46.986Z,84.32
2023-02-16T00:07:20.906Z,84.48
2023-02-16T00:09:54.607Z,84.44
2023-02-16T00:12:45.644Z,84.55
2023-02-16T00:15:23.438Z,84.67
2023-02-16T00:18:05.006Z,84.77
2023-02-16T00:20:38.770Z,84.83
2023-02-16T00:23:12.518Z,84.87
2023-02-16T00:25:45.645Z,84.83
2023-02-16T00:28:21.914Z,84.89
2023-02-16T00:30:55.399Z,84.71
2023-02-16T00:33:29.198Z,84.86
2023-02-16T00:36:03.020Z,85.13
2023-02-16T00:38:36.039Z,84.78
2023-02-16T00:41:38.241Z,85.11
2023-02-16T00:44:19.621Z,84.77
2023-02-16T00:46:52.996Z,84.93
2023-02-16T00:49:26.675Z,84.80
2023-02-16T00:52:00.244Z,84.90
2023-02-16T00:54:34.117Z,84.77
2023-02-16T00:57:08.587Z,84.95
2023-02-16T00:59:42.618Z,84.89
2023-02-16T01:02:16.644Z,85.10
2023-02-16T01:04:50.603Z,85.12
2023-02-16T01:07:41.724Z,84.65
2023-02-16T01:10:32.806Z,84.98
2023-02-16T01:13:06.651Z,84.82
2023-02-16T01:15:41.204Z,84.81
2023-02-16T01:18:17.511Z,84.83
2023-02-16T01:20:51.514Z,84.89
2023-02-16T01:23:25.771Z,84.95
2023-02-16T01:26:00.127Z,85.08
2023-02-16T01:28:38.072Z,84.77
2023-02-16T01:31:09.210Z,84.78
2023-02-16T01:33:43.596Z,85.06
2023-02-16T01:36:28.755Z,85.07
2023-02-16T01:39:02.328Z,85.25
2023-02-16T01:41:53.581Z,85.39
2023-02-16T01:44:30.405Z,85.07
2023-02-16T01:47:09.288Z,85.35
2023-02-16T01:49:43.193Z,85.50
2023-02-16T01:52:28.926Z,85.63
2023-02-16T01:55:07.669Z,85.60
2023-02-16T01:57:46.171Z,85.51
2023-02-16T02:00:54.275Z,85.42
2023-02-16T02:03:49.996Z,85.38
2023-02-16T02:06:26.143Z,85.32
2023-02-16T02:09:04.512Z,85.68
2023-02-16T02:11:44.167Z,85.66
2023-02-16T02:14:20.336Z,85.49
2023-02-16T02:17:00.766Z,85.60
2023-02-16T02:19:41.376Z,85.83
2023-02-16T02:22:47.586Z,85.68
2023-02-16T02:25:51.142Z,85.92
2023-02-16T02:28:31.994Z,85.70
2023-02-16T02:31:12.919Z,85.89
2023-02-16T02:33:57.720Z,86.01
2023-02-16T02:36:38.094Z,85.88
2023-02-16T02:39:22.267Z,85.91
2023-02-16T02:42:07.744Z,86.09
2023-02-16T02:44:47.470Z,85.97
2023-02-16T02:47:21.618Z,86.38
2023-02-16T02:49:57.106Z,85.84
2023-02-16T02:52:31.350Z,86.41
2023-02-16T02:55:22.499Z,86.31
2023-02-16T02:58:13.228Z,86.15
2023-02-16T03:00:50.066Z,86.22
2023-02-16T03:03:28.418Z,86.01
2023-02-16T03:06:05.986Z,86.35
2023-02-16T03:08:43.194Z,86.21
2023-02-16T03:11:36.978Z,86.66
2023-02-16T03:14:17.273Z,86.58
2023-02-16T03:17:11.177Z,86.62
2023-02-16T03:20:03.260Z,86.62
2023-02-16T03:22:55.958Z,86.79
2023-02-16T03:25:50.353Z,86.90
2023-02-16T03:28:45.259Z,87.03
2023-02-16T03:31:24.512Z,86.94
2023-02-16T03:33:58.187Z,87.17
2023-02-16T03:36:35.625Z,86.79
2023-02-16T03:39:10.160Z,86.87
2023-02-16T03:41:52.554Z,86.90
2023-02-16T03:44:26.953Z,87.20
2023-02-16T03:46:59.834Z,87.05
2023-02-16T03:49:33.277Z,87.17
2023-02-16T03:52:06.905Z,87.31
2023-02-16T03:54:40.627Z,87.44
2023-02-16T03:57:14.721Z,87.27
2023-02-16T03:59:48.787Z,87.41
2023-02-16T04:02:22.713Z,87.29
2023-02-16T04:04:57.115Z,86.97
2023-02-16T04:07:31.789Z,87.46
2023-02-16T04:10:05.665Z,87.49
2023-02-16T04:12:39.397Z,87.32
2023-02-16T04:15:15.303Z,87.49
2023-02-16T04:17:49.004Z,87.36
2023-02-16T04:20:24.485Z,87.45
2023-02-16T04:22:58.315Z,87.75
2023-02-16T04:25:32.179Z,87.82
2023-02-16T04:28:05.755Z,88.08
2023-02-16T04:30:39.522Z,88.29
2023-02-16T04:33:13.804Z,88.09
2023-02-16T04:35:47.774Z,88.20
2023-02-16T04:38:20.519Z,88.20
2023-02-16T04:40:54.076Z,88.37
2023-02-16T04:43:27.876Z,88.52
2023-02-16T04:46:04.225Z,88.47
2023-02-16T04:48:38.013Z,88.77
2023-02-16T04:51:11.451Z,88.57
2023-02-16T04:53:45.449Z,88.70
2023-02-16T04:56:19.853Z,88.92
2023-02-16T04:58:53.569Z,88.97
2023-02-16T05:01:28.347Z,88.58
2023-02-16T05:04:03.657Z,88.46
2023-02-16T05:06:37.321Z,88.37
2023-02-16T05:09:11.426Z,88.74
2023-02-16T05:12:02.747Z,88.62
2023-02-16T05:14:47.353Z,88.53
2023-02-16T05:17:22.818Z,88.72
2023-02-16T05:19:57.764Z,88.58
2023-02-16T05:22:34.357Z,88.68
2023-02-16T05:25:09.903Z,88.66
2023-02-16T05:27:43.058Z,88.70
2023-02-16T05:30:18.383Z,88.71
2023-02-16T05:32:51.928Z,88.65
2023-02-16T05:35:25.770Z,88.75
2023-02-16T05:37:58.678Z,88.80
2023-02-16T05:40:32.388Z,88.82
2023-02-16T05:43:06.163Z,88.79
2023-02-16T05:45:40.655Z,88.80
2023-02-16T05:48:13.642Z,88.64
2023-02-16T05:50:46.943Z,88.81
2023-02-16T05:53:19.967Z,88.50
2023-02-16T05:55:53.874Z,88.72
2023-02-16T05:58:27.421Z,88.72
2023-02-16T06:01:00.999Z,88.67
2023-02-16T06:03:33.888Z,88.73
2023-02-16T06:06:08.510Z,88.83
2023-02-16T06:08:44.000Z,88.87
2023-02-16T06:11:35.000Z,88.95
2023-02-16T06:14:12.771Z,88.93
2023-02-16T06:16:48.200Z,89.18
2023-02-16T06:19:22.678Z,88.95
2023-02-16T06:21:55.894Z,89.17
2023-02-16T06:24:29.745Z,89.04
2023-02-16T06:27:02.995Z,89.12
2023-02-16T06:29:36.922Z,89.11
2023-02-16T06:32:10.501Z,89.23
2023-02-16T06:34:43.195Z,89.15
2023-02-16T06:37:17.626Z,89.26
2023-02-16T06:39:51.164Z,89.18
2023-02-16T06:42:24.233Z,89.41
2023-02-16T06:44:57.766Z,89.39
2023-02-16T06:47:31.137Z,89.45
2023-02-16T06:50:05.561Z,89.54
2023-02-16T06:52:39.107Z,89.53
2023-02-16T06:55:13.761Z,89.37
2023-02-16T06:57:48.014Z,89.57
2023-02-16T07:00:23.020Z,89.52
2023-02-16T07:02:56.905Z,89.45
2023-02-16T07:05:30.517Z,89.59
2023-02-16T07:08:03.794Z,89.51
2023-02-16T07:10:48.984Z,89.48
2023-02-16T07:13:23.688Z,89.58
2023-02-16T07:15:57.273Z,89.52
2023-02-16T07:18:31.059Z,89.71
2023-02-16T07:21:04.732Z,89.57
2023-02-16T07:23:38.314Z,89.62
2023-02-16T07:26:11.917Z,89.66
2023-02-16T07:28:45.588Z,89.51
2023-02-16T07:31:20.376Z,89.41
2023-02-16T07:33:55.182Z,89.54
2023-02-16T07:36:28.292Z,89.40
2023-02-16T07:39:03.016Z,89.57
2023-02-16T07:41:35.834Z,89.62
2023-02-16T07:44:09.760Z,89.36
2023-02-16T07:46:44.292Z,89.24
2023-02-16T07:49:17.912Z,89.27
2023-02-16T07:51:51.023Z,89.39
2023-02-16T07:54:25.351Z,89.04
2023-02-16T07:56:58.917Z,89.05
2023-02-16T07:59:31.531Z,88.90
2023-02-16T08:02:05.444Z,89.22
2023-02-16T08:04:39.112Z,88.97
2023-02-16T08:07:13.151Z,89.05
2023-02-16T08:09:47.204Z,89.16
2023-02-16T08:12:22.298Z,89.09
2023-02-16T08:14:55.632Z,88.93
2023-02-16T08:17:29.499Z,88.77
2023-02-16T08:20:03.298Z,88.78
2023-02-16T08:22:37.743Z,88.95
2023-02-16T08:25:12.353Z,88.92
2023-02-16T08:27:45.401Z,89.01
2023-02-16T08:30:21.934Z,88.69
2023-02-16T08:32:57.745Z,88.78
2023-02-16T08:35:33.138Z,88.69
2023-02-16T08:38:10.211Z,88.73
2023-02-16T08:40:49.986Z,88.33
2023-02-16T08:43:23.198Z,88.22
2023-02-16T08:45:58.019Z,88.40
2023-02-16T08:48:36.493Z,88.40
2023-02-16T08:51:10.527Z,88.22
2023-02-16T08:53:44.859Z,88.12
2023-02-16T08:56:18.737Z,87.68
2023-02-16T08:58:53.420Z,87.52
2023-02-16T09:01:28.104Z,87.39
2023-02-16T09:04:01.599Z,87.47
2023-02-16T09:06:39.054Z,87.39
2023-02-16T09:09:13.640Z,86.75
2023-02-16T09:11:48.387Z,86.86
2023-02-16T09:14:23.798Z,86.91
2023-02-16T09:16:56.823Z,86.75
2023-02-16T09:19:30.472Z,86.77
2023-02-16T09:22:04.829Z,86.58
2023-02-16T09:24:41.199Z,86.67
2023-02-16T09:27:15.964Z,86.73
2023-02-16T09:29:50.470Z,86.81
2023-02-16T09:32:23.850Z,86.68
2023-02-16T09:34:57.111Z,86.79
2023-02-16T09:37:30.577Z,86.53
2023-02-16T09:40:04.096Z,86.36
2023-02-16T09:42:52.952Z,86.68
2023-02-16T09:45:29.510Z,86.41
2023-02-16T09:48:03.835Z,86.48
2023-02-16T09:50:53.353Z,86.32
2023-02-16T09:53:38.034Z,85.84
2023-02-16T09:56:19.506Z,85.74
2023-02-16T09:58:58.429Z,85.60
2023-02-16T10:01:38.854Z,85.02
2023-02-16T10:04:27.073Z,84.83
2023-02-16T10:07:18.792Z,84.64
2023-02-16T10:09:56.118Z,84.37
2023-02-16T10:12:29.645Z,84.00
2023-02-16T10:15:06.836Z,83.48
2023-02-16T10:17:48.083Z,83.18
2023-02-16T10:20:26.370Z,82.79
2023-02-16T10:23:07.133Z,82.47
2023-02-16T10:25:50.307Z,82.27
2023-02-16T10:28:31.010Z,81.99
2023-02-16T10:31:15.250Z,81.94
2023-02-16T10:34:05.642Z,81.48
2023-02-16T10:36:57.671Z,81.02
2023-02-16T10:39:43.111Z,80.50
2023-02-16T10:42:28.652Z,80.63
2023-02-16T10:45:10.523Z,80.56
2023-02-16T10:47:47.191Z,80.10
2023-02-16T10:50:29.805Z,79.68
2023-02-16T10:53:06.990Z,79.15
2023-02-16T10:55:41.223Z,78.79
2023-02-16T10:58:23.858Z,78.46
2023-02-16T11:01:04.346Z,78.50
2023-02-16T11:03:42.675Z,78.42
2023-02-16T11:06:20.942Z,78.38
2023-02-16T11:08:57.718Z,78.01
2023-02-16T11:11:31.875Z,77.96
2023-02-16T11:14:09.071Z,77.60
2023-02-16T11:16:43.166Z,77.82
2023-02-16T11:19:25.850Z,77.78
2023-02-16T11:22:00.654Z,77.72
2023-02-16T11:24:35.374Z,77.32
2023-02-16T11:27:17.921Z,77.05
2023-02-16T11:29:52.396Z,77.22
2023-02-16T11:32:26.993Z,77.37
2023-02-16T11:35:02.892Z,77.39
2023-02-16T11:37:37.072Z,77.36
2023-02-16T11:40:22.250Z,77.34
2023-02-16T11:42:57.885Z,77.08
2023-02-16T11:45:35.102Z,76.97
2023-02-16T11:48:12.048Z,77.13
2023-02-16T11:51:00.986Z,76.99
2023-02-16T11:53:36.564Z,76.63
2023-02-16T11:56:24.794Z,76.34
2023-02-16T11:59:21.183Z,75.54
2023-02-16T12:02:14.486Z,75.16
2023-02-16T12:05:01.241Z,75.31
2023-02-16T12:07:43.426Z,74.96
2023-02-16T12:10:26.626Z,74.87
2023-02-16T12:13:07.878Z,74.77
2023-02-16T12:15:47.855Z,74.57
2023-02-16T12:18:33.787Z,74.70
2023-02-16T12:21:18.975Z,75.11
2023-02-16T12:24:06.450Z,75.08
2023-02-16T12:26:50.176Z,75.02
2023-02-16T12:29:41.119Z,75.35
2023-02-16T12:32:47.744Z,75.13
2023-02-16T12:35:38.408Z,74.55
2023-02-16T12:38:23.088Z,74.13
2023-02-16T12:41:09.784Z,73.54
2023-02-16T12:43:47.202Z,73.52
2023-02-16T12:46:28.812Z,73.40
2023-02-16T12:49:09.412Z,73.45
2023-02-16T12:51:46.438Z,73.26
2023-02-16T12:54:24.656Z,73.11
2023-02-16T12:57:04.409Z,72.64
2023-02-16T12:59:41.869Z,72.89
2023-02-16T13:02:24.822Z,72.91
2023-02-16T13:05:11.995Z,72.93
2023-02-16T13:07:49.811Z,72.85
2023-02-16T13:10:24.308Z,72.60
2023-02-16T13:13:02.901Z,72.34
2023-02-16T13:15:41.348Z,72.63
2023-02-16T13:18:24.231Z,72.60
2023-02-16T13:21:06.689Z,72.96
2023-02-16T13:24:02.346Z,72.62
2023-02-16T13:26:51.217Z,72.69
2023-02-16T13:29:54.387Z,72.93
2023-02-16T13:32:58.360Z,72.93
2023-02-16T13:36:01.065Z,72.51
2023-02-16T13:39:07.650Z,72.01
2023-02-16T13:41:56.297Z,72.42
2023-02-16T13:44:39.166Z,72.13
2023-02-16T13:47:18.932Z,72.40
2023-02-16T13:49:59.147Z,72.56
2023-02-16T13:52:40.891Z,72.10
2023-02-16T13:55:30.175Z,72.23
2023-02-16T13:58:30.109Z,72.06
2023-02-16T14:01:23.776Z,72.15
2023-02-16T14:03:57.033Z,72.07
2023-02-16T14:06:43.405Z,71.90
2023-02-16T14:09:47.622Z,72.09
2023-02-16T14:12:28.098Z,72.15
2023-02-16T14:15:08.042Z,72.36
2023-02-16T14:17:42.808Z,72.46
2023-02-16T14:23:34.913Z,73.04
2023-02-16T14:26:10.697Z,73.18
2023-02-16T14:29:19.489Z,72.83
2023-02-16T14:32:01.054Z,72.88
2023-02-16T14:34:38.807Z,72.82
2023-02-16T14:37:32.111Z,72.40
2023-02-16T14:40:25.470Z,72.20
2023-02-16T14:43:05.343Z,72.40
2023-02-16T14:46:20.046Z,72.14
2023-02-16T14:49:22.342Z,72.51
2023-02-16T14:52:30.503Z,72.39
2023-02-16T14:55:35.903Z,72.29
2023-02-16T14:58:24.339Z,72.46
2023-02-16T15:01:06.861Z,72.85
2023-02-16T15:03:48.628Z,72.95
2023-02-16T15:06:30.646Z,72.53
2023-02-16T15:09:07.042Z,72.55
2023-02-16T15:11:59.253Z,72.92
2023-02-16T15:14:34.826Z,73.06
2023-02-16T15:17:11.431Z,73.36
2023-02-16T15:19:44.891Z,73.84
2023-02-16T15:22:23.625Z,73.59
2023-02-16T15:25:05.499Z,73.73
2023-02-16T15:27:39.210Z,73.35
2023-02-16T15:30:23.630Z,73.33
2023-02-16T15:33:02.273Z,73.04
2023-02-16T15:35:39.081Z,73.25
2023-02-16T15:38:24.681Z,73.24
2023-02-16T15:41:02.749Z,72.97
2023-02-16T15:43:39.180Z,73.03
2023-02-16T15:46:27.335Z,73.13
2023-02-16T15:49:00.558Z,73.74
2023-02-16T15:51:36.007Z,73.97
2023-02-16T15:54:19.658Z,74.35
2023-02-16T15:56:54.755Z,74.60
2023-02-16T15:59:35.895Z,74.24
2023-02-16T16:02:18.441Z,74.19
2023-02-16T16:04:55.359Z,74.38
2023-02-16T16:07:35.777Z,74.25
2023-02-16T16:10:17.970Z,74.69
2023-02-16T16:12:54.125Z,74.75
2023-02-16T16:15:28.455Z,74.90
2023-02-16T16:18:03.252Z,74.59
2023-02-16T16:20:38.482Z,74.84
2023-02-16T16:23:28.655Z,74.98
2023-02-16T16:26:02.397Z,75.03
2023-02-16T16:28:40.300Z,75.17
2023-02-16T16:31:16.176Z,75.23
2023-02-16T16:34:00.409Z,75.38
2023-02-16T16:36:37.921Z,75.53
2023-02-16T16:39:26.495Z,75.76
2023-02-16T16:42:20.182Z,75.66
2023-02-16T16:45:08.695Z,75.76
2023-02-16T16:47:51.139Z,75.92
2023-02-16T16:50:40.745Z,75.85
2023-02-16T16:53:42.410Z,76.16
2023-02-16T16:56:16.280Z,76.02
2023-02-16T16:58:52.688Z,76.22
2023-02-16T17:01:26.543Z,76.32
2023-02-16T17:03:59.993Z,76.37
2023-02-16T17:06:33.606Z,75.96
2023-02-16T17:09:07.257Z,76.05
2023-02-16T17:11:41.188Z,75.93
2023-02-16T17:14:19.697Z,76.07
2023-02-16T17:16:54.867Z,75.88
2023-02-16T17:19:30.015Z,76.17
2023-02-16T17:22:03.340Z,76.02
2023-02-16T17:24:36.587Z,76.15
2023-02-16T17:27:10.156Z,76.15
2023-02-16T17:29:43.682Z,76.00
2023-02-16T17:32:17.228Z,76.24
2023-02-16T17:34:50.415Z,76.04
2023-02-16T17:37:23.107Z,76.02
2023-02-16T17:39:56.023Z,76.02
2023-02-16T17:42:28.586Z,75.93
2023-02-16T17:45:00.338Z,76.07
2023-02-16T17:47:32.986Z,76.20
2023-02-16T17:50:09.938Z,76.09
2023-02-16T17:52:43.346Z,76.14
2023-02-16T17:55:16.831Z,76.09
2023-02-16T17:57:50.330Z,76.16
2023-02-16T18:00:24.802Z,76.16
2023-02-16T18:02:57.802Z,75.97
2023-02-16T18:05:31.690Z,76.19
2023-02-16T18:08:05.510Z,76.08
2023-02-16T18:10:42.249Z,76.01
2023-02-16T18:13:15.596Z,76.14
2023-02-16T18:15:52.305Z,76.16
2023-02-16T18:18:25.643Z,76.25
2023-02-16T18:20:58.413Z,76.17
2023-02-16T18:23:32.408Z,76.21
2023-02-16T18:26:06.478Z,76.33
2023-02-16T18:28:40.172Z,76.47
2023-02-16T18:31:15.016Z,76.50
2023-02-16T18:33:48.010Z,76.63
2023-02-16T18:36:20.751Z,76.75
2023-02-16T18:38:53.514Z,76.80
2023-02-16T18:41:27.359Z,76.90
2023-02-16T18:44:00.224Z,76.71
2023-02-16T18:46:34.156Z,76.73
2023-02-16T18:49:07.105Z,76.87
2023-02-16T18:51:39.883Z,76.93
2023-02-16T18:54:12.350Z,77.05
2023-02-16T18:56:45.266Z,77.07
2023-02-16T18:59:18.599Z,77.18
2023-02-16T19:01:56.221Z,77.29
2023-02-16T19:04:30.028Z,77.47
2023-02-16T19:07:03.444Z,77.64
2023-02-16T19:09:36.980Z,77.69
2023-02-16T19:12:10.443Z,78.06
2023-02-16T19:14:44.003Z,78.18
2023-02-16T19:17:16.844Z,78.34
2023-02-16T19:19:50.639Z,78.54
2023-02-16T19:22:23.570Z,78.61
2023-02-16T19:24:57.536Z,78.56
2023-02-16T19:27:31.022Z,78.72
2023-02-16T19:30:03.717Z,78.76
2023-02-16T19:32:36.091Z,78.87
2023-02-16T19:35:09.167Z,79.07
2023-02-16T19:37:42.728Z,79.38
2023-02-16T19:40:16.827Z,79.57
2023-02-16T19:42:49.771Z,79.71
2023-02-16T19:45:22.460Z,79.86
2023-02-16T19:47:55.737Z,79.83
2023-02-16T19:50:29.073Z,79.97
2023-02-16T19:53:02.888Z,79.95
2023-02-16T19:55:36.425Z,79.89
2023-02-16T19:58:08.506Z,79.91
2023-02-16T20:00:41.625Z,80.04
2023-02-16T20:03:16.148Z,80.21
2023-02-16T20:05:48.370Z,80.33
2023-02-16T20:08:21.381Z,80.40
2023-02-16T20:10:54.188Z,80.29
2023-02-16T20:13:28.155Z,80.59
2023-02-16T20:16:05.561Z,80.72
2023-02-16T20:18:39.981Z,80.96
2023-02-16T20:21:14.458Z,81.45
2023-02-16T20:23:47.592Z,81.58
2023-02-16T20:26:22.366Z,81.63
2023-02-16T20:28:56.059Z,81.68
2023-02-16T20:31:30.687Z,81.85
2023-02-16T20:34:04.994Z,81.74
2023-02-16T20:36:37.936Z,81.61
2023-02-16T20:39:11.435Z,81.88
2023-02-16T20:41:45.325Z,81.81
2023-02-16T20:44:18.229Z,81.93
2023-02-16T20:46:51.489Z,81.87
2023-02-16T20:49:24.808Z,81.84
2023-02-16T20:51:57.851Z,81.90
2023-02-16T20:54:30.171Z,81.73
2023-02-16T20:57:03.075Z,81.84
2023-02-16T20:59:35.863Z,81.95
2023-02-16T21:02:09.290Z,81.79
2023-02-16T21:04:42.655Z,81.76
2023-02-16T21:07:15.486Z,81.79
2023-02-16T21:09:45.994Z,81.89
2023-02-16T21:12:17.621Z,81.85
2023-02-16T21:14:50.790Z,81.77
2023-02-16T21:17:23.525Z,81.89
2023-02-16T21:19:56.990Z,81.86
2023-02-16T21:22:29.710Z,81.80
2023-02-16T21:25:03.299Z,81.87
2023-02-16T21:27:36.606Z,81.93
2023-02-16T21:30:11.087Z,82.00
2023-02-16T21:32:44.524Z,81.95
2023-02-16T21:35:18.308Z,81.75
2023-02-16T21:37:52.302Z,81.90
2023-02-16T21:40:43.614Z,82.08
2023-02-16T21:43:17.771Z,82.31
2023-02-16T21:46:00.060Z,82.45
2023-02-16T21:48:48.005Z,82.49
2023-02-16T21:51:22.902Z,82.59
2023-02-16T21:53:56.891Z,82.60
2023-02-16T21:56:35.908Z,82.49
2023-02-16T21:59:12.069Z,82.59
2023-02-16T22:01:46.426Z,82.62
2023-02-16T22:04:21.952Z,82.71
2023-02-16T22:06:56.717Z,82.54
2023-02-16T22:09:29.357Z,82.57
2023-02-16T22:12:03.280Z,82.54
2023-02-16T22:14:36.755Z,82.53
2023-02-16T22:17:09.329Z,82.93
2023-02-16T22:19:41.358Z,82.93
2023-02-16T22:22:13.989Z,83.15
2023-02-16T22:24:46.226Z,83.10
2023-02-16T22:27:19.446Z,83.24
2023-02-16T22:29:52.770Z,83.23
2023-02-16T22:32:26.521Z,83.30
2023-02-16T22:34:59.126Z,83.33
2023-02-16T22:37:33.608Z,83.44
2023-02-16T22:40:06.753Z,83.42
2023-02-16T22:42:40.044Z,83.38
2023-02-16T22:45:13.802Z,83.29
2023-02-16T22:47:46.478Z,83.41
2023-02-16T22:50:19.731Z,83.50
2023-02-16T22:52:51.949Z,83.53
2023-02-16T22:55:24.785Z,83.59
2023-02-16T22:57:58.335Z,83.50
2023-02-16T23:00:31.324Z,83.79
2023-02-16T23:03:03.843Z,83.70
2023-02-16T23:05:36.310Z,83.71
2023-02-16T23:08:10.086Z,83.95
2023-02-16T23:10:59.949Z,83.97
2023-02-16T23:13:32.585Z,84.24
2023-02-16T23:16:09.878Z,84.41
2023-02-16T23:18:42.627Z,84.57
2023-02-16T23:21:19.157Z,84.61
2023-02-16T23:23:52.966Z,84.80
2023-02-16T23:26:27.997Z,84.85
2023-02-16T23:29:02.033Z,85.03
2023-02-16T23:31:37.898Z,85.12
2023-02-16T23:34:10.846Z,85.37
2023-02-16T23:36:43.300Z,85.40
2023-02-16T23:39:18.295Z,85.50
2023-02-16T23:41:50.738Z,85.67
2023-02-16T23:44:23.473Z,85.58
2023-02-16T23:46:56.454Z,85.79
2023-02-16T23:49:28.715Z,85.84
2023-02-16T23:52:00.800Z,86.01
2023-02-16T23:54:33.819Z,85.93
2023-02-16T23:57:07.558Z,86.05
2023-02-16T23:59:40.224Z,86.03
